Time;durP1;ratioP1;P1;durP2;ratioP2;P2;SDS_P1;SDS_P2;PMS_P1;PMS_P2;Temp;Humidity;BMP_temperature;BMP_pressure;BME280_temperature;BME280_humidity;BME280_pressure;Samples;Min_cycle;Max_cycle;Signal;HPM_P1;HPM_P2
2023/04/03 00:01:38;;;;;;;17.25;6.60;;;8.10;99.90;;;;;;5033834;28;20487;-75
2023/04/03 00:04:05;;;;;;;14.18;6.38;;;8.10;99.90;;;;;;5033022;28;20037;-75
2023/04/03 00:06:31;;;;;;;15.40;6.68;;;8.20;99.90;;;;;;5034161;28;20049;-76
2023/04/03 00:08:58;;;;;;;16.50;5.90;;;8.20;99.90;;;;;;5032439;28;20379;-75
2023/04/03 00:11:25;;;;;;;16.92;6.55;;;8.20;99.90;;;;;;5032625;28;20017;-75
2023/04/03 00:13:51;;;;;;;18.48;7.03;;;8.20;99.90;;;;;;5033909;28;20037;-75
2023/04/03 00:16:17;;;;;;;14.98;6.47;;;8.10;99.90;;;;;;5033602;28;20391;-75
2023/04/03 00:18:43;;;;;;;16.88;6.70;;;7.90;99.90;;;;;;5033811;28;20411;-75
2023/04/03 00:21:10;;;;;;;12.82;6.55;;;7.90;99.90;;;;;;5016183;28;20029;-75
2023/04/03 00:23:36;;;;;;;15.00;5.97;;;7.90;99.90;;;;;;5032891;28;20030;-75
2023/04/03 00:26:02;;;;;;;14.38;7.20;;;7.80;99.90;;;;;;5033375;28;20018;-75
2023/04/03 00:28:28;;;;;;;20.20;8.55;;;7.80;99.90;;;;;;5032509;28;20037;-75
2023/04/03 00:30:54;;;;;;;12.48;6.82;;;7.50;99.90;;;;;;5032135;28;20029;-76
2023/04/03 00:33:21;;;;;;;18.33;6.80;;;7.50;99.90;;;;;;5033623;28;20034;-75
2023/04/03 00:35:48;;;;;;;17.63;6.38;;;7.50;99.90;;;;;;5033619;28;20018;-75
2023/04/03 00:38:14;;;;;;;15.82;5.93;;;7.50;99.90;;;;;;5032552;28;20032;-75
2023/04/03 00:40:45;;;;;;;21.23;7.25;;;7.50;99.90;;;;;;5033131;28;20025;-75
2023/04/03 00:43:20;;;;;;;13.83;6.23;;;7.60;99.90;;;;;;5029178;28;20408;-75
2023/04/03 00:45:50;;;;;;;18.23;6.75;;;7.60;99.90;;;;;;4996876;28;20118;-74
2023/04/03 00:48:36;;;;;;;21.75;7.28;;;7.50;99.90;;;;;;4980232;28;20030;-75
2023/04/03 00:51:03;;;;;;;15.15;7.70;;;7.40;99.90;;;;;;5025608;28;20049;-75
2023/04/03 00:53:39;;;;;;;16.40;6.67;;;7.10;99.90;;;;;;5015799;28;20029;-75
2023/04/03 00:56:06;;;;;;;14.83;5.93;;;7.00;99.90;;;;;;5015542;28;20025;-75
2023/04/03 00:58:36;;;;;;;14.30;6.43;;;7.20;99.90;;;;;;4999102;28;20029;-75
2023/04/03 01:01:05;;;;;;;10.93;6.60;;;7.20;99.90;;;;;;5015485;28;20026;-75
2023/04/03 01:03:31;;;;;;;9.53;5.80;;;7.20;99.90;;;;;;4999573;28;20049;-75
2023/04/03 01:05:57;;;;;;;15.63;7.27;;;7.20;99.90;;;;;;5033048;28;20041;-75
2023/04/03 01:08:23;;;;;;;19.30;6.30;;;7.10;99.90;;;;;;5015487;28;20032;-75
2023/04/03 01:10:49;;;;;;;14.17;6.87;;;7.10;99.90;;;;;;5032617;28;20030;-75
2023/04/03 01:13:30;;;;;;;15.73;6.20;;;7.00;99.90;;;;;;5031736;28;20048;-75
2023/04/03 01:15:56;;;;;;;12.47;5.90;;;6.90;99.90;;;;;;5039676;28;20369;-75
2023/04/03 01:18:23;;;;;;;10.67;5.80;;;6.90;99.90;;;;;;5051468;28;20028;-75
2023/04/03 01:20:56;;;;;;;18.67;6.67;;;6.80;99.90;;;;;;5050568;28;20420;-75
2023/04/03 01:23:53;;;;;;;14.90;5.63;;;6.90;99.90;;;;;;5052638;28;20021;-75
2023/04/03 01:26:19;;;;;;;13.13;6.30;;;6.90;99.90;;;;;;5036606;28;20036;-76
2023/04/03 01:28:45;;;;;;;18.07;6.13;;;6.80;99.90;;;;;;5051378;28;20040;-75
2023/04/03 01:31:20;;;;;;;17.73;5.90;;;6.80;99.90;;;;;;5050698;28;20037;-75
2023/04/03 01:33:46;;;;;;;15.10;5.90;;;6.80;99.90;;;;;;5052645;28;20044;-75
2023/04/03 01:36:28;;;;;;;13.53;5.57;;;6.70;99.90;;;;;;5050988;28;20032;-75
2023/04/03 01:38:54;;;;;;;14.52;5.70;;;6.60;99.90;;;;;;5033874;28;20048;-75
2023/04/03 01:41:20;;;;;;;19.73;5.70;;;6.60;99.90;;;;;;5051185;28;20040;-75
2023/04/03 01:43:47;;;;;;;18.70;5.53;;;6.60;99.90;;;;;;5043165;28;20032;-75
2023/04/03 01:46:14;;;;;;;12.03;5.40;;;6.70;99.90;;;;;;5014502;28;20033;-75
2023/04/03 01:48:40;;;;;;;13.57;5.17;;;6.70;99.90;;;;;;5032419;28;20494;-75
2023/04/03 01:51:06;;;;;;;15.07;5.90;;;6.60;99.90;;;;;;5028759;28;20041;-75
2023/04/03 01:53:33;;;;;;;14.13;5.77;;;6.50;99.90;;;;;;5034116;28;20093;-75
2023/04/03 01:55:59;;;;;;;11.30;5.57;;;6.40;99.90;;;;;;5051117;28;20088;-75
2023/04/03 01:58:25;;;;;;;10.90;5.60;;;6.40;99.90;;;;;;5033938;28;20041;-75
2023/04/03 02:00:51;;;;;;;15.97;5.53;;;6.40;99.90;;;;;;5049845;28;20036;-75
2023/04/03 02:03:18;;;;;;;17.77;5.37;;;6.40;99.90;;;;;;5031301;28;20045;-75
2023/04/03 02:05:44;;;;;;;19.13;5.20;;;6.50;99.90;;;;;;5047495;28;20033;-75
2023/04/03 02:08:11;;;;;;;20.07;6.23;;;6.40;99.90;;;;;;5046390;28;20029;-75
2023/04/03 02:10:37;;;;;;;16.33;5.90;;;6.40;99.90;;;;;;5027747;28;20037;-75
2023/04/03 02:13:03;;;;;;;14.07;5.17;;;6.40;99.90;;;;;;5050815;28;20475;-76
2023/04/03 02:15:29;;;;;;;13.43;5.63;;;6.50;99.90;;;;;;5032442;28;20040;-75
2023/04/03 02:17:55;;;;;;;15.93;5.83;;;6.50;99.90;;;;;;5049283;28;20451;-75
2023/04/03 02:20:21;;;;;;;17.17;5.60;;;6.60;99.90;;;;;;5049417;28;20048;-75
2023/04/03 02:22:47;;;;;;;13.63;5.10;;;6.60;99.90;;;;;;5050363;28;20565;-75
2023/04/03 02:25:13;;;;;;;17.50;4.83;;;6.60;99.90;;;;;;5049460;28;20026;-75
2023/04/03 02:27:39;;;;;;;10.83;5.47;;;6.60;99.90;;;;;;5049086;28;20498;-75
2023/04/03 02:30:06;;;;;;;18.23;5.57;;;6.60;99.90;;;;;;5048854;28;20483;-75
2023/04/03 02:32:32;;;;;;;11.47;5.80;;;6.60;99.90;;;;;;5053269;28;20025;-76
2023/04/03 02:34:58;;;;;;;17.03;5.40;;;6.60;99.90;;;;;;5053315;28;20479;-75
2023/04/03 02:37:25;;;;;;;13.63;4.87;;;6.70;99.90;;;;;;5053172;28;20025;-75
2023/04/03 02:39:51;;;;;;;12.63;5.50;;;6.70;99.90;;;;;;5054513;28;20475;-75
2023/04/03 02:42:17;;;;;;;18.40;5.23;;;6.60;99.90;;;;;;5054570;28;20044;-75
2023/04/03 02:44:44;;;;;;;13.53;4.50;;;6.70;99.90;;;;;;5037763;28;20025;-75
2023/04/03 02:47:10;;;;;;;9.17;5.23;;;6.70;99.90;;;;;;5053700;28;20403;-75
2023/04/03 02:49:36;;;;;;;11.40;5.43;;;6.70;99.90;;;;;;5052655;28;20029;-75
2023/04/03 02:52:02;;;;;;;9.50;5.07;;;6.70;99.90;;;;;;5016964;28;20488;-75
2023/04/03 02:54:30;;;;;;;11.77;5.93;;;6.70;99.90;;;;;;5035490;28;20037;-75
2023/04/03 02:56:57;;;;;;;17.90;6.20;;;6.80;99.90;;;;;;5034169;28;20021;-75
2023/04/03 02:59:23;;;;;;;13.73;5.30;;;6.80;99.90;;;;;;5035433;28;20037;-75
2023/04/03 03:01:49;;;;;;;11.35;5.35;;;6.80;99.90;;;;;;5034864;28;20033;-75
2023/04/03 03:04:15;;;;;;;8.20;4.97;;;6.90;99.90;;;;;;5017443;28;20037;-75
2023/04/03 03:06:41;;;;;;;17.70;6.13;;;6.80;99.90;;;;;;5034947;28;20028;-75
2023/04/03 03:09:07;;;;;;;12.70;5.38;;;6.80;99.90;;;;;;5035290;28;20040;-75
2023/04/03 03:11:33;;;;;;;9.85;5.28;;;6.90;99.90;;;;;;5035242;28;20030;-75
2023/04/03 03:13:59;;;;;;;14.97;5.93;;;6.90;99.90;;;;;;5033991;28;20040;-75
2023/04/03 03:16:25;;;;;;;11.03;5.53;;;6.90;99.90;;;;;;5033441;28;20475;-74
2023/04/03 03:18:51;;;;;;;10.90;5.80;;;6.90;99.90;;;;;;5033954;28;20033;-75
2023/04/03 03:21:18;;;;;;;13.35;5.68;;;6.90;99.90;;;;;;5034801;28;20491;-75
2023/04/03 03:23:44;;;;;;;11.17;5.80;;;6.90;99.90;;;;;;5033929;28;20029;-75
2023/04/03 03:26:10;;;;;;;17.52;5.75;;;7.00;99.90;;;;;;5022012;28;20387;-75
2023/04/03 03:28:37;;;;;;;13.73;5.80;;;7.00;99.90;;;;;;5036640;28;20033;-75
2023/04/03 03:31:03;;;;;;;14.80;6.03;;;6.90;99.90;;;;;;5053201;28;20025;-75
2023/04/03 03:33:29;;;;;;;7.10;4.27;;;6.90;99.90;;;;;;5036335;28;20514;-75
2023/04/03 03:35:55;;;;;;;11.40;5.73;;;6.90;99.90;;;;;;5053293;28;20360;-75
2023/04/03 03:38:21;;;;;;;13.67;5.93;;;6.90;99.90;;;;;;5053507;28;20037;-75
2023/04/03 03:40:48;;;;;;;16.90;6.90;;;6.80;99.90;;;;;;5053417;28;20025;-75
2023/04/03 03:43:15;;;;;;;15.80;6.83;;;6.90;99.90;;;;;;5052351;28;20017;-75
2023/04/03 03:45:41;;;;;;;13.20;6.00;;;6.90;99.90;;;;;;5052960;28;20033;-75
2023/04/03 03:48:07;;;;;;;13.77;6.68;;;6.90;99.90;;;;;;5054492;28;20029;-75
2023/04/03 03:50:33;;;;;;;17.63;6.37;;;6.90;99.90;;;;;;5026418;28;20407;-75
2023/04/03 03:52:59;;;;;;;10.90;6.55;;;6.90;99.90;;;;;;5016580;28;20526;-75
2023/04/03 03:55:26;;;;;;;14.47;6.77;;;6.90;99.90;;;;;;5033112;28;20034;-75
2023/04/03 03:57:52;;;;;;;13.27;6.33;;;6.90;99.90;;;;;;5034478;28;20033;-75
2023/04/03 04:00:18;;;;;;;11.30;6.60;;;6.90;99.90;;;;;;5015635;28;20037;-75
2023/04/03 04:02:44;;;;;;;12.47;6.37;;;6.90;99.90;;;;;;5034243;28;20476;-75
2023/04/03 04:05:10;;;;;;;16.97;6.77;;;6.90;99.90;;;;;;5032745;28;20029;-75
2023/04/03 04:07:36;;;;;;;11.43;6.37;;;6.90;99.90;;;;;;5032990;28;20032;-75
2023/04/03 04:10:03;;;;;;;12.87;7.43;;;6.90;99.90;;;;;;5016479;28;20372;-75
2023/04/03 04:12:29;;;;;;;16.17;6.80;;;6.90;99.90;;;;;;5016555;28;20025;-75
2023/04/03 04:14:55;;;;;;;13.87;7.80;;;7.00;99.90;;;;;;5032833;28;20397;-75
2023/04/03 04:17:21;;;;;;;8.63;6.80;;;6.90;99.90;;;;;;5033540;28;20036;-75
2023/04/03 04:19:47;;;;;;;7.30;5.87;;;7.00;99.90;;;;;;5032562;28;20033;-74
2023/04/03 04:22:13;;;;;;;15.60;8.07;;;6.90;99.90;;;;;;5032749;28;20017;-75
2023/04/03 04:24:39;;;;;;;17.03;8.13;;;6.90;99.90;;;;;;5032440;28;20064;-75
2023/04/03 04:27:05;;;;;;;8.27;6.70;;;6.90;99.90;;;;;;5028916;28;20032;-74
2023/04/03 04:29:35;;;;;;;10.53;7.77;;;6.80;99.90;;;;;;5036011;28;20168;-75
2023/04/03 04:32:02;;;;;;;14.97;7.20;;;6.80;99.90;;;;;;5053219;28;20149;-75
2023/04/03 04:34:29;;;;;;;12.30;6.07;;;6.80;99.90;;;;;;5052001;28;20041;-75
2023/04/03 04:36:55;;;;;;;12.23;6.40;;;6.90;99.90;;;;;;5052377;28;20025;-75
2023/04/03 04:39:21;;;;;;;15.90;7.53;;;6.90;99.90;;;;;;5035733;28;20059;-75
2023/04/03 04:41:47;;;;;;;11.53;7.20;;;7.00;99.90;;;;;;5035509;28;20498;-75
2023/04/03 04:44:14;;;;;;;13.40;7.07;;;6.90;99.90;;;;;;5023439;28;20045;-75
2023/04/03 04:46:40;;;;;;;20.02;8.02;;;6.90;99.90;;;;;;5018273;28;20034;-75
2023/04/03 04:49:06;;;;;;;11.97;7.73;;;6.90;99.90;;;;;;5013338;28;20457;-74
2023/04/03 04:51:32;;;;;;;11.23;8.07;;;6.90;99.90;;;;;;5029746;28;20053;-75
2023/04/03 04:53:58;;;;;;;12.43;8.57;;;7.00;99.90;;;;;;5015503;28;20400;-75
2023/04/03 04:56:25;;;;;;;14.67;8.57;;;7.00;99.90;;;;;;5033251;28;20034;-75
2023/04/03 04:58:51;;;;;;;12.37;7.83;;;7.00;99.90;;;;;;5033230;28;20415;-75
2023/04/03 05:01:18;;;;;;;9.80;7.45;;;7.10;99.90;;;;;;5032352;28;20045;-74
2023/04/03 05:03:44;;;;;;;17.10;8.57;;;7.00;99.90;;;;;;5015744;28;20033;-75
2023/04/03 05:06:10;;;;;;;12.10;8.80;;;7.10;99.90;;;;;;5031781;28;20041;-75
2023/04/03 05:08:36;;;;;;;13.67;9.97;;;7.10;99.90;;;;;;5032930;28;20029;-75
2023/04/03 05:11:02;;;;;;;8.60;7.57;;;7.10;99.90;;;;;;5033052;28;20033;-75
2023/04/03 05:13:29;;;;;;;13.10;9.70;;;7.00;99.90;;;;;;5032957;28;20037;-75
2023/04/03 05:15:55;;;;;;;16.27;9.27;;;7.00;99.90;;;;;;5014350;28;20040;-75
2023/04/03 05:18:21;;;;;;;16.27;9.00;;;7.00;99.90;;;;;;5031680;28;20033;-75
2023/04/03 05:20:49;;;;;;;14.70;9.63;;;7.00;99.90;;;;;;5031537;28;20383;-75
2023/04/03 05:23:15;;;;;;;12.20;8.97;;;7.10;99.90;;;;;;5015298;28;20033;-75
2023/04/03 05:25:41;;;;;;;14.27;8.98;;;7.10;99.90;;;;;;5031016;28;20034;-75
2023/04/03 05:28:07;;;;;;;11.47;8.10;;;7.10;99.90;;;;;;5031533;28;20026;-75
2023/04/03 05:30:33;;;;;;;16.43;10.10;;;7.10;99.90;;;;;;5031904;28;20369;-75
2023/04/03 05:32:59;;;;;;;12.05;9.35;;;7.00;99.90;;;;;;5031614;28;20026;-75
2023/04/03 05:35:25;;;;;;;11.33;7.90;;;7.10;99.90;;;;;;5032504;28;20044;-75
2023/04/03 05:37:52;;;;;;;15.53;9.07;;;7.00;99.90;;;;;;5032539;28;20032;-75
2023/04/03 05:40:18;;;;;;;9.17;7.47;;;7.00;99.90;;;;;;5032507;28;20025;-75
2023/04/03 05:42:44;;;;;;;12.33;8.50;;;6.90;99.90;;;;;;5032455;28;20028;-75
2023/04/03 05:45:10;;;;;;;4.13;3.80;;;6.90;99.90;;;;;;5011054;28;20037;-74
2023/04/03 05:47:36;;;;;;;14.03;9.53;;;6.90;99.90;;;;;;5011487;28;20024;-75
2023/04/03 05:50:03;;;;;;;10.80;8.53;;;6.90;99.90;;;;;;5016722;28;20491;-75
2023/04/03 05:52:36;;;;;;;14.90;9.20;;;7.00;99.90;;;;;;5032143;28;20499;-75
2023/04/03 05:55:03;;;;;;;12.20;9.13;;;7.00;99.90;;;;;;5031114;28;20108;-75
2023/04/03 05:57:29;;;;;;;12.73;9.32;;;7.00;99.90;;;;;;5030997;28;20468;-75
2023/04/03 05:59:55;;;;;;;14.00;10.37;;;7.00;99.90;;;;;;4998079;28;20045;-75
2023/04/03 06:02:22;;;;;;;11.23;9.40;;;7.10;99.90;;;;;;5030542;28;20408;-75
2023/04/03 06:04:48;;;;;;;12.27;9.90;;;7.20;99.90;;;;;;5030961;28;20380;-75
2023/04/03 06:07:17;;;;;;;11.53;9.37;;;7.10;99.90;;;;;;5030412;28;20029;-75
2023/04/03 06:09:43;;;;;;;12.70;10.15;;;7.20;99.90;;;;;;5014929;28;20026;-75
2023/04/03 06:12:10;;;;;;;11.45;9.30;;;7.10;99.90;;;;;;5030932;28;20389;-75
2023/04/03 06:14:36;;;;;;;11.37;9.50;;;7.20;99.90;;;;;;5014192;28;20034;-75
2023/04/03 06:17:02;;;;;;;11.00;9.03;;;7.20;99.90;;;;;;5046688;28;20029;-75
2023/04/03 06:19:28;;;;;;;12.80;9.73;;;7.20;99.90;;;;;;5052028;28;20538;-75
2023/04/03 06:21:54;;;;;;;12.70;9.00;;;7.10;99.90;;;;;;5034124;28;20017;-75
2023/04/03 06:24:22;;;;;;;12.90;10.13;;;7.10;99.90;;;;;;5050263;28;20044;-75
2023/04/03 06:26:49;;;;;;;11.20;10.00;;;7.10;99.90;;;;;;5051627;28;20032;-75
2023/04/03 06:29:15;;;;;;;14.37;10.70;;;7.20;99.90;;;;;;5050366;28;20032;-76
2023/04/03 06:31:41;;;;;;;11.00;9.10;;;7.20;99.90;;;;;;5051461;28;20491;-75
2023/04/03 06:34:08;;;;;;;12.63;10.20;;;7.10;99.90;;;;;;5051773;28;20048;-75
2023/04/03 06:36:34;;;;;;;8.67;6.83;;;7.10;99.90;;;;;;5050547;28;20383;-75
2023/04/03 06:39:01;;;;;;;10.23;9.23;;;7.20;99.90;;;;;;5051822;28;20029;-75
2023/04/03 06:41:27;;;;;;;13.70;10.27;;;7.20;99.90;;;;;;5050542;28;20029;-75
2023/04/03 06:43:56;;;;;;;11.03;9.77;;;7.20;99.90;;;;;;5032972;28;20044;-75
2023/04/03 06:46:22;;;;;;;12.27;10.18;;;7.20;99.90;;;;;;5051261;28;20033;-75
2023/04/03 06:48:48;;;;;;;7.60;5.83;;;7.30;99.90;;;;;;5033731;28;20045;-75
2023/04/03 06:51:24;;;;;;;12.38;10.07;;;7.30;99.90;;;;;;5036254;28;20472;-75
2023/04/03 06:53:52;;;;;;;8.77;7.87;;;7.30;99.90;;;;;;5014871;28;20030;-74
2023/04/03 06:56:18;;;;;;;11.95;9.07;;;7.30;99.90;;;;;;5030520;28;20399;-75
2023/04/03 06:58:44;;;;;;;12.15;10.95;;;7.30;99.90;;;;;;5013697;28;20033;-75
2023/04/03 07:01:11;;;;;;;13.70;11.15;;;7.30;99.90;;;;;;5030091;28;20426;-75
2023/04/03 07:03:38;;;;;;;11.43;9.85;;;7.30;99.90;;;;;;5014265;28;20037;-75
2023/04/03 07:06:05;;;;;;;13.20;10.90;;;7.30;99.90;;;;;;5031657;28;20044;-75
2023/04/03 07:08:31;;;;;;;7.20;5.35;;;7.30;99.90;;;;;;5014231;28;20026;-75
2023/04/03 07:10:57;;;;;;;12.25;10.60;;;7.30;99.90;;;;;;5031564;28;20025;-75
2023/04/03 07:13:23;;;;;;;16.00;11.40;;;7.30;99.90;;;;;;5030128;28;20025;-75
2023/04/03 07:15:50;;;;;;;13.45;10.55;;;7.30;99.90;;;;;;5029762;28;20048;-75
2023/04/03 07:18:16;;;;;;;15.40;12.27;;;7.30;99.90;;;;;;5031938;28;20383;-75
2023/04/03 07:20:43;;;;;;;10.25;9.18;;;7.30;99.90;;;;;;5033897;28;20021;-75
2023/04/03 07:23:09;;;;;;;12.65;10.13;;;7.40;99.90;;;;;;5034871;28;20468;-75
2023/04/03 07:25:35;;;;;;;12.32;10.48;;;7.40;99.90;;;;;;5034306;28;20456;-75
2023/04/03 07:28:01;;;;;;;11.30;9.88;;;7.40;99.90;;;;;;5054508;28;20021;-75
2023/04/03 07:30:27;;;;;;;12.43;9.75;;;7.50;99.90;;;;;;5054513;28;20033;-75
2023/04/03 07:32:53;;;;;;;9.88;8.38;;;7.40;99.90;;;;;;5053453;28;20029;-75
2023/04/03 07:35:20;;;;;;;9.67;7.00;;;7.40;99.90;;;;;;5053497;28;20037;-75
2023/04/03 07:37:46;;;;;;;13.27;11.57;;;7.40;99.90;;;;;;5054668;28;20379;-75
2023/04/03 07:40:12;;;;;;;16.75;12.43;;;7.40;99.90;;;;;;5054497;28;20033;-75
2023/04/03 07:42:38;;;;;;;14.63;12.50;;;7.50;99.90;;;;;;5053130;28;20021;-75
2023/04/03 07:45:05;;;;;;;11.88;9.60;;;7.50;99.90;;;;;;5052938;28;20029;-76
2023/04/03 07:47:31;;;;;;;16.05;9.23;;;7.50;99.90;;;;;;5053300;28;20471;-75
2023/04/03 07:49:57;;;;;;;15.18;11.48;;;7.50;99.90;;;;;;5048588;28;20033;-75
2023/04/03 07:52:24;;;;;;;15.27;12.80;;;7.50;99.90;;;;;;5034419;28;20060;-75
2023/04/03 07:54:50;;;;;;;16.50;7.00;;;7.50;99.90;;;;;;5034277;28;20048;-75
2023/04/03 07:57:16;;;;;;;14.73;13.00;;;7.60;99.90;;;;;;5034096;28;20388;-75
2023/04/03 07:59:42;;;;;;;14.48;11.32;;;7.60;99.90;;;;;;5034416;28;20099;-75
2023/04/03 08:02:09;;;;;;;20.67;13.93;;;7.60;99.90;;;;;;5033893;28;20034;-75
2023/04/03 08:04:35;;;;;;;15.48;13.77;;;7.60;99.90;;;;;;5016799;28;20044;-75
2023/04/03 08:07:01;;;;;;;14.77;12.50;;;7.70;99.90;;;;;;5034221;28;20468;-76
2023/04/03 08:09:28;;;;;;;13.95;11.43;;;7.70;99.90;;;;;;5034308;28;20038;-75
2023/04/03 08:11:54;;;;;;;13.90;11.02;;;7.70;99.90;;;;;;5033773;28;20453;-75
2023/04/03 08:14:20;;;;;;;7.18;5.38;;;7.70;99.90;;;;;;5034162;28;20041;-75
2023/04/03 08:16:47;;;;;;;12.25;8.50;;;7.70;99.90;;;;;;5033481;28;20479;-75
2023/04/03 08:19:15;;;;;;;16.77;14.98;;;7.60;99.90;;;;;;4999980;28;20029;-75
2023/04/03 08:21:41;;;;;;;14.05;10.73;;;7.60;99.90;;;;;;5034009;28;20025;-75
2023/04/03 08:24:08;;;;;;;15.90;14.10;;;7.60;99.90;;;;;;5032755;28;20037;-75
2023/04/03 08:26:34;;;;;;;10.00;7.10;;;7.60;99.90;;;;;;5041850;28;20036;-75
2023/04/03 08:29:00;;;;;;;13.75;8.88;;;7.70;99.90;;;;;;5053438;28;20025;-75
2023/04/03 08:31:26;;;;;;;16.20;13.45;;;7.60;99.90;;;;;;5051723;28;20400;-75
2023/04/03 08:33:52;;;;;;;7.83;5.43;;;7.60;99.90;;;;;;5052370;28;20029;-75
2023/04/03 08:36:21;;;;;;;12.40;9.75;;;7.70;99.90;;;;;;5052361;28;20041;-75
2023/04/03 08:38:47;;;;;;;11.48;9.80;;;7.70;99.90;;;;;;5051975;28;20521;-75
2023/04/03 08:41:34;;;;;;;13.07;10.77;;;7.80;99.90;;;;;;5052332;28;20029;-75
2023/04/03 08:44:36;;;;;;;8.23;7.38;;;7.70;99.90;;;;;;5052265;28;20021;-75
2023/04/03 08:47:25;;;;;;;11.68;9.63;;;7.70;99.90;;;;;;5052006;28;20033;-75
2023/04/03 08:49:57;;;;;;;13.68;11.45;;;7.70;99.90;;;;;;5065053;28;20032;-75
2023/04/03 08:52:47;;;;;;;12.25;10.77;;;7.80;99.90;;;;;;5032172;28;20068;-75
2023/04/03 08:55:31;;;;;;;8.57;7.00;;;7.80;99.90;;;;;;5015505;28;20045;-75
2023/04/03 08:58:02;;;;;;;10.02;9.07;;;7.80;99.90;;;;;;5017688;28;20037;-75
2023/04/03 09:00:49;;;;;;;15.27;13.52;;;7.90;99.90;;;;;;5015442;28;20035;-74
2023/04/03 09:03:17;;;;;;;12.90;11.65;;;8.00;99.90;;;;;;5032225;28;20032;-75
2023/04/03 09:05:53;;;;;;;12.48;10.85;;;8.20;99.90;;;;;;5015469;28;20045;-75
2023/04/03 09:08:42;;;;;;;12.68;9.25;;;8.20;99.90;;;;;;5031715;28;20372;-75
2023/04/03 09:11:21;;;;;;;12.38;10.95;;;8.30;99.90;;;;;;5031952;28;20040;-75
2023/04/03 09:14:06;;;;;;;14.63;11.07;;;8.30;99.90;;;;;;5031685;28;20048;-75
2023/04/03 09:16:49;;;;;;;11.65;10.20;;;8.40;99.90;;;;;;5030724;28;20043;-75
2023/04/03 09:19:21;;;;;;;10.85;9.43;;;8.40;99.90;;;;;;5031719;28;20049;-75
2023/04/03 09:21:47;;;;;;;14.13;8.60;;;8.50;99.90;;;;;;5031778;28;20032;-74
2023/04/03 09:24:14;;;;;;;11.63;8.15;;;8.40;99.90;;;;;;5031166;28;20040;-75
2023/04/03 09:26:52;;;;;;;9.95;6.75;;;8.40;99.90;;;;;;5024565;28;20025;-75
2023/04/03 09:29:20;;;;;;;12.40;10.05;;;8.40;99.90;;;;;;5035896;28;20037;-76
2023/04/03 09:31:47;;;;;;;12.23;8.95;;;8.50;99.90;;;;;;5050836;28;20051;-74
2023/04/03 09:34:27;;;;;;;10.32;8.25;;;8.60;99.90;;;;;;5051185;28;20041;-75
2023/04/03 09:36:59;;;;;;;8.95;8.00;;;8.60;99.90;;;;;;5035857;28;20029;-75
2023/04/03 09:39:27;;;;;;;9.73;8.07;;;8.50;99.90;;;;;;5051312;28;20025;-75
2023/04/03 09:42:04;;;;;;;11.45;9.10;;;8.50;99.90;;;;;;5050371;28;20391;-75
2023/04/03 09:44:37;;;;;;;13.05;8.82;;;8.50;99.90;;;;;;5038536;28;20028;-75
2023/04/03 09:47:29;;;;;;;14.52;10.40;;;8.40;99.90;;;;;;5015594;28;20038;-75
2023/04/03 09:50:14;;;;;;;11.27;8.80;;;8.50;99.90;;;;;;5015803;28;20021;-75
2023/04/03 09:52:41;;;;;;;10.07;8.57;;;8.60;99.90;;;;;;5031932;28;20048;-75
2023/04/03 09:55:18;;;;;;;12.10;10.13;;;8.60;99.90;;;;;;5031051;28;20064;-75
2023/04/03 09:57:48;;;;;;;6.60;5.88;;;8.60;99.90;;;;;;5031040;28;20022;-75
2023/04/03 10:00:47;;;;;;;12.57;10.38;;;8.60;99.90;;;;;;5031868;28;20375;-75
2023/04/03 10:03:39;;;;;;;10.25;8.20;;;8.60;99.90;;;;;;5029342;28;20377;-75
2023/04/03 10:06:18;;;;;;;12.90;9.85;;;8.60;99.90;;;;;;5022529;28;20487;-75
2023/04/03 10:08:44;;;;;;;13.52;10.02;;;8.60;99.90;;;;;;5016140;28;20048;-75
2023/04/03 10:11:15;;;;;;;11.13;9.93;;;8.70;99.90;;;;;;4997690;28;20048;-75
2023/04/03 10:13:53;;;;;;;10.45;7.72;;;8.80;99.90;;;;;;5031141;28;20048;-75
2023/04/03 10:16:22;;;;;;;14.75;9.82;;;8.90;99.90;;;;;;5014210;28;20050;-75
2023/04/03 10:19:08;;;;;;;10.45;7.80;;;8.80;99.90;;;;;;5014756;28;20022;-75
2023/04/03 10:22:04;;;;;;;5.72;4.63;;;8.80;99.90;;;;;;5030878;28;20025;-75
2023/04/03 10:25:01;;;;;;;6.43;5.82;;;8.70;99.90;;;;;;5014351;28;20033;-75
2023/04/03 10:27:39;;;;;;;10.13;8.93;;;8.70;99.90;;;;;;4932339;29;20048;-75
2023/04/03 10:30:28;;;;;;;12.98;10.18;;;8.80;99.90;;;;;;4916382;28;20048;-75
2023/04/03 10:33:21;;;;;;;12.60;9.82;;;8.80;99.90;;;;;;4932749;29;20127;-75
2023/04/03 10:36:13;;;;;;;11.48;9.40;;;8.80;99.90;;;;;;4932089;29;20039;-75
2023/04/03 10:38:42;;;;;;;13.13;9.23;;;8.90;99.90;;;;;;4918879;29;20039;-76
2023/04/03 10:41:16;;;;;;;16.00;10.90;;;9.00;99.90;;;;;;4932505;29;20039;-75
2023/04/03 10:43:58;;;;;;;14.93;11.68;;;9.00;99.90;;;;;;4924409;29;20034;-75
2023/04/03 10:46:37;;;;;;;13.90;11.07;;;9.00;99.90;;;;;;4962031;28;20038;-75
2023/04/03 10:49:09;;;;;;;7.60;6.88;;;9.10;99.90;;;;;;4970966;28;20035;-75
2023/04/03 10:51:45;;;;;;;7.43;6.70;;;9.20;99.90;;;;;;4970363;28;20046;-75
2023/04/03 10:54:14;;;;;;;8.48;7.30;;;9.20;99.90;;;;;;4974337;28;20510;-75
2023/04/03 10:56:47;;;;;;;9.27;7.05;;;9.10;99.90;;;;;;4958755;28;20039;-75
2023/04/03 10:59:59;;;;;;;11.18;10.00;;;9.10;99.90;;;;;;4959176;28;20037;-75
2023/04/03 11:02:31;;;;;;;13.15;10.93;;;9.10;99.90;;;;;;4962040;28;20326;-76
2023/04/03 11:05:11;;;;;;;9.50;8.50;;;9.20;99.90;;;;;;4983178;28;20033;-75
2023/04/03 11:07:39;;;;;;;13.27;10.93;;;9.30;99.90;;;;;;5017183;28;20025;-75
2023/04/03 11:10:24;;;;;;;6.32;5.45;;;9.30;99.90;;;;;;5000379;28;20030;-75
2023/04/03 11:12:58;;;;;;;5.45;4.93;;;9.30;99.90;;;;;;5016551;28;20399;-75
2023/04/03 11:15:24;;;;;;;11.13;9.68;;;9.20;99.90;;;;;;5016226;28;20479;-75
2023/04/03 11:18:04;;;;;;;11.40;9.68;;;9.20;99.90;;;;;;5016411;28;20038;-75
2023/04/03 11:20:33;;;;;;;12.18;9.65;;;9.30;99.90;;;;;;4999633;28;20029;-75
2023/04/03 11:23:21;;;;;;;10.35;9.27;;;9.50;99.90;;;;;;4999852;28;20045;-75
2023/04/03 11:25:49;;;;;;;10.38;9.32;;;9.60;99.90;;;;;;5016255;28;20037;-75
2023/04/03 11:28:16;;;;;;;10.95;9.63;;;9.70;99.90;;;;;;4977254;28;20030;-75
2023/04/03 11:31:01;;;;;;;11.82;9.35;;;9.80;99.90;;;;;;4992886;28;20030;-75
2023/04/03 11:33:33;;;;;;;10.68;7.80;;;9.80;99.90;;;;;;4976831;28;20438;-75
2023/04/03 11:36:05;;;;;;;12.98;10.23;;;9.70;99.90;;;;;;4977479;28;20060;-76
2023/04/03 11:38:41;;;;;;;13.80;10.40;;;9.70;99.90;;;;;;5014463;28;20034;-75
2023/04/03 11:41:08;;;;;;;12.68;9.80;;;9.70;99.90;;;;;;5033490;28;20037;-75
2023/04/03 11:43:55;;;;;;;10.75;9.65;;;9.90;99.90;;;;;;5033419;28;20030;-75
2023/04/03 11:46:21;;;;;;;14.98;9.82;;;9.90;99.90;;;;;;5022235;28;20404;-76
2023/04/03 11:48:48;;;;;;;9.45;8.32;;;9.90;99.90;;;;;;4981136;28;20038;-75
2023/04/03 11:51:17;;;;;;;11.52;9.60;;;9.80;99.90;;;;;;5008727;28;20054;-75
2023/04/03 11:53:44;;;;;;;7.75;6.97;;;9.70;99.90;;;;;;5013571;28;20048;-75
2023/04/03 11:56:26;;;;;;;10.88;9.73;;;9.90;99.90;;;;;;5013416;28;20331;-75
2023/04/03 11:59:10;;;;;;;10.40;9.30;;;9.80;99.90;;;;;;5014546;28;20037;-75
2023/04/03 12:01:47;;;;;;;14.45;9.85;;;9.80;99.90;;;;;;5014111;28;20141;-75
2023/04/03 12:04:15;;;;;;;11.15;9.68;;;9.80;99.90;;;;;;5012561;28;20033;-76
2023/04/03 12:06:45;;;;;;;10.40;9.35;;;9.80;99.90;;;;;;5013261;28;20026;-75
2023/04/03 12:09:33;;;;;;;10.25;9.30;;;10.00;99.90;;;;;;5014416;28;20026;-75
2023/04/03 12:12:01;;;;;;;9.05;8.18;;;9.80;99.90;;;;;;5012702;28;20392;-75
2023/04/03 12:14:27;;;;;;;11.77;9.27;;;9.80;99.90;;;;;;5013144;28;20033;-75
2023/04/03 12:16:57;;;;;;;10.55;9.18;;;9.80;99.90;;;;;;5012268;28;20038;-75
2023/04/03 12:19:32;;;;;;;13.23;9.25;;;9.80;99.90;;;;;;5013343;28;20205;-75
2023/04/03 12:21:59;;;;;;;12.02;9.75;;;9.80;99.90;;;;;;5014189;28;20491;-75
2023/04/03 12:24:45;;;;;;;9.35;8.18;;;9.90;99.90;;;;;;5014321;28;20033;-75
2023/04/03 12:27:23;;;;;;;9.60;8.60;;;9.90;99.90;;;;;;5026243;28;20032;-75
2023/04/03 12:30:01;;;;;;;5.22;4.35;;;9.90;99.90;;;;;;5032635;28;20495;-75
2023/04/03 12:32:45;;;;;;;9.50;8.55;;;9.80;99.90;;;;;;5068274;28;20029;-75
2023/04/03 12:35:44;;;;;;;10.50;9.25;;;9.80;99.90;;;;;;5052129;28;20037;-75
2023/04/03 12:38:34;;;;;;;9.45;8.07;;;9.90;99.90;;;;;;5052311;28;20029;-75
2023/04/03 12:41:10;;;;;;;10.50;9.40;;;9.90;99.90;;;;;;5052378;28;20356;-75
2023/04/03 12:43:45;;;;;;;9.63;8.63;;;9.90;99.90;;;;;;5052284;28;20032;-76
2023/04/03 12:46:16;;;;;;;10.32;9.35;;;10.00;99.90;;;;;;5052618;28;20025;-76
2023/04/03 12:48:45;;;;;;;9.60;8.70;;;10.10;99.90;;;;;;5069049;28;20391;-76
2023/04/03 12:51:15;;;;;;;10.90;9.80;;;10.10;99.90;;;;;;5038343;28;20413;-75
2023/04/03 12:53:42;;;;;;;11.82;8.90;;;10.20;99.90;;;;;;5016071;28;20498;-76
2023/04/03 12:56:28;;;;;;;13.43;9.27;;;10.40;99.90;;;;;;5015457;28;20041;-76
2023/04/03 12:58:57;;;;;;;10.70;9.70;;;10.40;99.90;;;;;;5033368;28;20037;-76
2023/04/03 13:01:24;;;;;;;9.55;8.20;;;10.50;99.90;;;;;;4998848;28;20041;-76